createdAt,value
2022-11-29T00:01:25.317Z,43.20
2022-11-29T00:03:53.314Z,42.70
2022-11-29T00:06:23.101Z,41.75
2022-11-29T00:08:50.395Z,40.35
2022-11-29T00:11:39.108Z,42.28
2022-11-29T00:14:08.013Z,43.10
2022-11-29T00:16:35.591Z,42.42
2022-11-29T00:19:03.244Z,43.75
2022-11-29T00:21:30.452Z,43.20
2022-11-29T00:23:57.640Z,42.60
2022-11-29T00:26:24.845Z,41.15
2022-11-29T00:28:52.967Z,46.78
2022-11-29T00:31:22.957Z,42.63
2022-11-29T00:33:50.916Z,44.08
2022-11-29T00:36:18.793Z,41.60
2022-11-29T00:38:46.443Z,40.10
2022-11-29T00:41:13.891Z,41.55
2022-11-29T00:43:41.534Z,41.55
2022-11-29T00:46:09.769Z,38.97
2022-11-29T00:48:37.261Z,40.40
2022-11-29T00:51:05.923Z,40.45
2022-11-29T00:53:34.232Z,39.25
2022-11-29T00:56:02.672Z,41.10
2022-11-29T00:58:30.576Z,44.40
2022-11-29T01:00:57.976Z,43.97
2022-11-29T01:03:25.406Z,45.08
2022-11-29T01:05:52.836Z,46.97
2022-11-29T01:08:20.194Z,45.00
2022-11-29T01:10:47.385Z,46.28
2022-11-29T01:13:14.632Z,47.53
2022-11-29T01:15:42.118Z,47.70
2022-11-29T01:18:09.313Z,46.05
2022-11-29T01:20:36.425Z,50.05
2022-11-29T01:23:03.561Z,46.70
2022-11-29T01:25:32.056Z,51.23
2022-11-29T01:27:59.236Z,46.65
2022-11-29T01:30:26.438Z,48.30
2022-11-29T01:32:53.606Z,48.40
2022-11-29T01:35:23.946Z,47.08
2022-11-29T01:37:51.124Z,49.95
2022-11-29T01:40:18.404Z,49.53
2022-11-29T01:42:45.596Z,50.33
2022-11-29T01:45:24.656Z,48.53
2022-11-29T01:47:56.824Z,51.10
2022-11-29T01:50:24.425Z,47.13
2022-11-29T01:52:51.926Z,52.17
2022-11-29T01:55:19.424Z,55.35
2022-11-29T01:57:47.003Z,51.88
2022-11-29T02:00:17.641Z,49.00
2022-11-29T02:02:53.599Z,49.40
2022-11-29T02:05:22.171Z,51.45
2022-11-29T02:07:52.516Z,51.08
2022-11-29T02:10:20.368Z,49.35
2022-11-29T02:13:15.388Z,51.63
2022-11-29T02:15:45.917Z,52.60
2022-11-29T02:18:37.897Z,55.17
2022-11-29T02:21:28.597Z,55.70
2022-11-29T02:24:23.435Z,54.13
2022-11-29T02:27:09.215Z,48.97
2022-11-29T02:30:12.174Z,49.90
2022-11-29T02:32:48.260Z,48.75
2022-11-29T02:35:18.461Z,49.37
2022-11-29T02:38:09.856Z,44.50
2022-11-29T02:40:51.172Z,48.15
2022-11-29T02:43:59.047Z,43.70
2022-11-29T02:46:50.221Z,45.70
2022-11-29T02:49:44.115Z,47.20
2022-11-29T02:52:29.413Z,45.45
2022-11-29T02:55:33.394Z,47.58
2022-11-29T02:58:15.424Z,46.70
2022-11-29T03:00:51.398Z,52.17
2022-11-29T03:03:24.916Z,48.07
2022-11-29T03:06:11.859Z,47.90
2022-11-29T03:09:00.127Z,46.13
2022-11-29T03:11:38.313Z,42.13
2022-11-29T03:14:19.605Z,49.03
2022-11-29T03:17:24.716Z,48.88
2022-11-29T03:20:13.507Z,49.38
2022-11-29T03:23:06.100Z,46.15
2022-11-29T03:25:44.389Z,47.88
2022-11-29T03:28:40.806Z,48.63
2022-11-29T03:31:20.256Z,49.08
2022-11-29T03:33:59.315Z,47.17
2022-11-29T03:37:17.297Z,45.03
2022-11-29T03:39:44.484Z,41.70
2022-11-29T03:42:18.455Z,41.23
2022-11-29T03:44:56.176Z,38.67
2022-11-29T03:47:34.363Z,45.65
2022-11-29T03:50:06.427Z,45.55
2022-11-29T03:52:47.492Z,45.33
2022-11-29T03:55:29.331Z,42.70
2022-11-29T03:58:22.580Z,48.13
2022-11-29T04:00:49.722Z,42.63
2022-11-29T04:03:42.015Z,41.20
2022-11-29T04:06:46.885Z,42.65
2022-11-29T04:09:27.072Z,40.22
2022-11-29T04:12:49.360Z,44.13
2022-11-29T04:15:50.525Z,39.87
2022-11-29T04:18:35.557Z,40.10
2022-11-29T04:21:17.733Z,38.70
2022-11-29T04:24:38.991Z,35.03
2022-11-29T04:27:49.210Z,39.70
2022-11-29T04:30:23.501Z,39.50
2022-11-29T04:33:22.262Z,40.60
2022-11-29T04:36:28.292Z,39.03
2022-11-29T04:39:01.198Z,40.70
2022-11-29T04:41:41.312Z,37.08
2022-11-29T04:44:46.311Z,36.88
2022-11-29T04:47:34.820Z,35.38
2022-11-29T04:50:13.152Z,34.22
2022-11-29T04:52:45.896Z,32.92
2022-11-29T04:55:26.129Z,36.35
2022-11-29T04:58:19.221Z,33.20
2022-11-29T05:01:01.342Z,35.50
2022-11-29T05:03:41.432Z,36.63
2022-11-29T05:06:27.594Z,35.70
2022-11-29T05:09:06.927Z,32.43
2022-11-29T05:11:53.428Z,33.67
2022-11-29T05:14:49.155Z,34.60
2022-11-29T05:17:26.312Z,34.10
2022-11-29T05:20:13.006Z,36.13
2022-11-29T05:23:04.720Z,32.83
2022-11-29T05:25:39.752Z,34.13
2022-11-29T05:28:22.400Z,33.88
2022-11-29T05:31:06.431Z,31.20
2022-11-29T05:33:54.472Z,32.72
2022-11-29T05:37:00.074Z,39.27
2022-11-29T05:39:46.316Z,33.77
2022-11-29T05:42:38.264Z,33.58
2022-11-29T05:45:25.341Z,31.80
2022-11-29T05:48:11.549Z,32.75
2022-11-29T05:51:23.639Z,28.95
2022-11-29T05:54:20.012Z,30.48
2022-11-29T05:56:52.971Z,26.60
2022-11-29T05:59:30.786Z,27.35
2022-11-29T06:01:57.965Z,30.85
2022-11-29T06:04:48.047Z,30.92
2022-11-29T06:07:22.464Z,27.50
2022-11-29T06:10:01.855Z,26.25
2022-11-29T06:12:31.841Z,28.70
2022-11-29T06:15:27.967Z,27.60
2022-11-29T06:18:06.817Z,30.42
2022-11-29T06:21:18.514Z,24.15
2022-11-29T06:24:25.880Z,27.40
2022-11-29T06:27:08.201Z,25.67
2022-11-29T06:29:38.365Z,29.30
2022-11-29T06:32:21.584Z,26.63
2022-11-29T06:35:07.459Z,25.95
2022-11-29T06:37:48.227Z,27.50
2022-11-29T06:40:16.242Z,26.05
2022-11-29T06:42:43.632Z,25.20
2022-11-29T06:45:13.801Z,26.15
2022-11-29T06:48:06.398Z,28.80
2022-11-29T06:50:54.128Z,27.02
2022-11-29T06:53:42.019Z,28.88
2022-11-29T06:56:35.717Z,26.87
2022-11-29T06:59:08.553Z,27.70
2022-11-29T07:01:57.195Z,26.95
2022-11-29T07:04:49.316Z,28.98
2022-11-29T07:07:22.634Z,28.08
2022-11-29T07:09:53.109Z,24.90
2022-11-29T07:12:20.629Z,25.05
2022-11-29T07:14:48.291Z,28.15
2022-11-29T07:17:31.072Z,25.23
2022-11-29T07:20:12.733Z,23.00
2022-11-29T07:22:51.033Z,24.80
2022-11-29T07:25:18.139Z,24.13
2022-11-29T07:28:02.220Z,23.60
2022-11-29T07:31:02.347Z,23.70
2022-11-29T07:33:29.544Z,24.67
2022-11-29T07:36:19.428Z,24.58
2022-11-29T07:38:52.396Z,26.40
2022-11-29T07:41:36.717Z,23.92
2022-11-29T07:44:35.405Z,23.55
2022-11-29T07:47:02.743Z,24.77
2022-11-29T07:49:29.986Z,24.42
2022-11-29T07:51:57.395Z,21.75
2022-11-29T07:54:24.765Z,24.35
2022-11-29T07:56:51.909Z,23.17
2022-11-29T07:59:20.015Z,23.75
2022-11-29T08:01:47.311Z,22.20
2022-11-29T08:04:14.525Z,22.20
2022-11-29T08:06:42.174Z,24.33
2022-11-29T08:09:09.481Z,22.92
2022-11-29T08:11:36.760Z,23.63
2022-11-29T08:14:05.264Z,22.33
2022-11-29T08:16:32.866Z,22.52
2022-11-29T08:19:00.512Z,21.38
2022-11-29T08:21:27.978Z,19.00
2022-11-29T08:23:55.151Z,20.15
2022-11-29T08:26:26.778Z,23.98
2022-11-29T08:28:57.017Z,21.33
2022-11-29T08:31:24.242Z,22.48
2022-11-29T08:33:51.433Z,26.17
2022-11-29T08:36:20.073Z,27.35
2022-11-29T08:38:48.186Z,25.63
2022-11-29T08:41:17.186Z,24.65
2022-11-29T08:43:44.720Z,24.55
2022-11-29T08:46:17.974Z,28.52
2022-11-29T08:48:46.842Z,25.77
2022-11-29T08:51:14.858Z,24.38
2022-11-29T08:53:42.078Z,24.98
2022-11-29T08:57:04.574Z,25.75
2022-11-29T08:59:02.532Z,22.52
2022-11-29T09:01:30.119Z,24.30
2022-11-29T09:04:00.116Z,21.88
2022-11-29T09:06:29.850Z,21.55
2022-11-29T09:08:58.226Z,24.63
2022-11-29T09:11:26.800Z,24.40
2022-11-29T09:13:58.364Z,26.77
2022-11-29T09:16:28.772Z,27.27
2022-11-29T09:18:56.286Z,22.35
2022-11-29T09:21:25.728Z,22.48
2022-11-29T09:23:58.631Z,23.63
2022-11-29T09:26:29.140Z,24.45
2022-11-29T09:28:58.500Z,25.80
2022-11-29T09:31:27.183Z,24.00
2022-11-29T09:33:55.353Z,23.98
2022-11-29T09:36:28.118Z,22.75
2022-11-29T09:38:57.398Z,22.38
2022-11-29T09:41:36.506Z,22.15
2022-11-29T09:44:09.632Z,22.48
2022-11-29T09:47:00.914Z,23.67
2022-11-29T09:49:37.124Z,23.43
2022-11-29T09:52:22.300Z,21.63
2022-11-29T09:55:10.103Z,21.80
2022-11-29T09:57:39.635Z,21.45
2022-11-29T10:00:14.281Z,20.57
2022-11-29T10:02:47.641Z,20.80
2022-11-29T10:05:28.501Z,20.25
2022-11-29T10:08:02.219Z,17.92
2022-11-29T10:10:32.453Z,17.38
2022-11-29T10:13:15.669Z,16.80
2022-11-29T10:15:46.878Z,17.50
2022-11-29T10:18:32.300Z,16.73
2022-11-29T10:21:06.360Z,17.40
2022-11-29T10:23:38.665Z,17.60
2022-11-29T10:26:08.873Z,17.02
2022-11-29T10:28:37.263Z,17.45
2022-11-29T10:31:27.123Z,16.35
2022-11-29T10:33:56.226Z,16.70
2022-11-29T10:36:44.449Z,15.30
2022-11-29T10:39:25.708Z,17.52
2022-11-29T10:41:59.486Z,15.05
2022-11-29T10:44:27.525Z,17.42
2022-11-29T10:46:55.962Z,15.30
2022-11-29T10:49:27.540Z,16.10
2022-11-29T10:51:54.713Z,16.83
2022-11-29T10:54:42.562Z,16.73
2022-11-29T10:57:15.880Z,15.20
2022-11-29T11:00:09.906Z,16.10
2022-11-29T11:02:37.582Z,15.88
2022-11-29T11:05:13.161Z,16.02
2022-11-29T11:07:40.875Z,16.90
2022-11-29T11:10:23.220Z,15.47
2022-11-29T11:13:19.957Z,15.60
2022-11-29T11:15:47.340Z,16.07
2022-11-29T11:18:23.683Z,14.90
2022-11-29T11:20:57.236Z,15.77
2022-11-29T11:23:31.187Z,16.92
2022-11-29T11:26:00.324Z,16.15
2022-11-29T11:28:31.731Z,15.90
2022-11-29T11:31:02.272Z,16.17
2022-11-29T11:33:32.724Z,17.38
2022-11-29T11:36:12.005Z,16.38
2022-11-29T11:38:57.383Z,16.52
2022-11-29T11:41:50.465Z,16.60
2022-11-29T11:47:21.455Z,17.35
2022-11-29T11:50:02.295Z,31.87
2022-11-29T11:52:39.833Z,68.22
2022-11-29T11:55:39.232Z,66.85
2022-11-29T11:58:17.062Z,12.20
2022-11-29T12:01:03.841Z,11.80
2022-11-29T12:03:43.690Z,11.70
2022-11-29T12:06:25.930Z,12.98
2022-11-29T12:09:18.588Z,14.10
2022-11-29T12:11:49.430Z,14.50
2022-11-29T12:14:46.340Z,14.35
2022-11-29T12:17:33.665Z,14.40
2022-11-29T12:20:15.315Z,15.00
2022-11-29T12:23:08.892Z,16.15
2022-11-29T12:25:46.742Z,15.93
2022-11-29T12:28:20.306Z,16.40
2022-11-29T12:31:15.935Z,17.00
2022-11-29T12:34:00.172Z,15.63
2022-11-29T12:36:55.672Z,16.13
2022-11-29T12:39:38.694Z,16.60
2022-11-29T12:42:26.197Z,16.80
2022-11-29T12:45:29.579Z,16.15
2022-11-29T12:48:02.886Z,16.63
2022-11-29T12:50:48.919Z,15.48
2022-11-29T12:53:34.424Z,15.20
2022-11-29T12:56:11.023Z,14.20
2022-11-29T12:58:53.293Z,14.80
2022-11-29T13:01:38.586Z,14.25
2022-11-29T13:04:23.805Z,13.32
2022-11-29T13:07:15.583Z,12.40
2022-11-29T13:10:03.352Z,13.18
2022-11-29T13:12:51.316Z,12.15
2022-11-29T13:15:21.316Z,11.20
2022-11-29T13:18:00.369Z,10.13
2022-11-29T13:20:37.624Z,11.50
2022-11-29T13:23:16.233Z,10.97
2022-11-29T13:25:47.090Z,10.27
2022-11-29T13:28:26.301Z,9.07
2022-11-29T13:30:58.874Z,9.35
2022-11-29T13:33:28.987Z,8.43
2022-11-29T13:36:19.201Z,8.10
2022-11-29T13:39:08.755Z,7.50
2022-11-29T13:41:55.304Z,6.20
2022-11-29T13:44:39.199Z,6.30
2022-11-29T13:47:12.499Z,6.55
2022-11-29T13:50:06.175Z,6.80
2022-11-29T13:52:42.409Z,8.17
2022-11-29T13:55:12.593Z,5.80
2022-11-29T13:58:17.768Z,6.72
2022-11-29T14:00:45.320Z,5.40
2022-11-29T14:03:25.930Z,5.80
2022-11-29T14:06:13.261Z,4.82
2022-11-29T14:09:10.805Z,4.90
2022-11-29T14:11:53.746Z,5.47
2022-11-29T14:14:52.036Z,5.47
2022-11-29T14:17:47.510Z,6.38
2022-11-29T14:20:24.884Z,5.68
2022-11-29T14:23:04.305Z,5.32
2022-11-29T14:28:22.428Z,6.18
2022-11-29T14:31:02.992Z,5.33
2022-11-29T14:34:01.865Z,5.80
2022-11-29T14:36:49.938Z,5.65
2022-11-29T14:39:35.138Z,5.60
2022-11-29T14:42:18.981Z,5.90
2022-11-29T14:44:56.038Z,4.93
2022-11-29T14:47:32.353Z,4.97
2022-11-29T14:50:04.052Z,5.82
2022-11-29T14:52:39.436Z,4.80
2022-11-29T14:55:08.521Z,4.57
2022-11-29T14:57:51.560Z,4.80
2022-11-29T15:00:32.490Z,4.55
2022-11-29T15:03:09.672Z,4.03
2022-11-29T15:05:50.779Z,4.33
2022-11-29T15:08:32.952Z,4.18
2022-11-29T15:11:08.095Z,4.40
2022-11-29T15:13:36.870Z,4.23
2022-11-29T15:16:10.113Z,3.95
2022-11-29T15:18:52.454Z,3.72
2022-11-29T15:21:50.207Z,3.70
2022-11-29T15:24:18.129Z,3.50
2022-11-29T15:27:00.901Z,4.40
2022-11-29T15:29:29.919Z,4.22
2022-11-29T15:32:00.717Z,4.53
2022-11-29T15:34:33.839Z,4.13
2022-11-29T15:37:01.672Z,4.03
2022-11-29T15:39:33.004Z,3.50
2022-11-29T15:42:19.329Z,4.43
2022-11-29T15:44:48.806Z,3.80
2022-11-29T15:47:25.274Z,4.03
2022-11-29T15:49:54.040Z,3.78
2022-11-29T15:52:41.583Z,4.47
2022-11-29T15:55:14.041Z,3.80
2022-11-29T15:57:44.550Z,4.18
2022-11-29T16:00:19.891Z,4.40
2022-11-29T16:02:51.986Z,3.83
2022-11-29T16:05:40.736Z,4.03
2022-11-29T16:08:14.608Z,3.67
2022-11-29T16:10:47.397Z,3.78
2022-11-29T16:13:32.148Z,4.50
2022-11-29T16:16:22.422Z,4.25
2022-11-29T16:18:50.728Z,3.70
2022-11-29T16:21:28.807Z,4.18
2022-11-29T16:23:57.195Z,3.83
2022-11-29T16:26:28.591Z,3.47
2022-11-29T16:28:57.853Z,3.65
2022-11-29T16:31:34.785Z,4.45
2022-11-29T16:34:14.849Z,3.90
2022-11-29T16:36:42.138Z,3.80
2022-11-29T16:39:25.283Z,21.30
2022-11-29T16:42:13.759Z,4.80
2022-11-29T16:44:41.229Z,8.85
2022-11-29T16:47:29.261Z,5.55
2022-11-29T16:50:02.621Z,7.35
2022-11-29T16:52:32.249Z,9.00
2022-11-29T16:54:59.882Z,4.72
2022-11-29T16:57:28.690Z,3.88
2022-11-29T16:59:55.840Z,3.92
2022-11-29T17:02:23.504Z,3.60
2022-11-29T17:04:51.498Z,4.22
2022-11-29T17:07:26.930Z,4.20
2022-11-29T17:09:54.616Z,4.50
2022-11-29T17:12:22.184Z,4.40
2022-11-29T17:14:49.489Z,4.78
2022-11-29T17:17:18.770Z,5.00
2022-11-29T17:19:46.172Z,4.32
2022-11-29T17:22:13.319Z,4.40
2022-11-29T17:24:46.229Z,3.92
2022-11-29T17:27:15.064Z,4.22
2022-11-29T17:29:42.197Z,4.35
2022-11-29T17:32:09.489Z,4.47
2022-11-29T17:34:36.688Z,4.63
2022-11-29T17:37:03.989Z,4.03
2022-11-29T17:39:31.160Z,4.20
2022-11-29T17:41:58.345Z,4.15
2022-11-29T17:44:25.685Z,4.55
2022-11-29T17:46:52.866Z,4.30
2022-11-29T17:49:20.080Z,4.40
2022-11-29T17:51:52.353Z,4.78
2022-11-29T17:54:24.076Z,4.70
2022-11-29T17:56:51.855Z,4.53
2022-11-29T17:59:19.188Z,4.60
2022-11-29T18:01:49.230Z,4.27
2022-11-29T18:04:17.742Z,6.68
2022-11-29T18:06:50.146Z,5.70
2022-11-29T18:09:18.763Z,5.30
2022-11-29T18:11:49.135Z,4.78
2022-11-29T18:14:28.153Z,4.83
2022-11-29T18:16:55.572Z,4.77
2022-11-29T18:19:23.236Z,4.40
2022-11-29T18:21:51.123Z,4.20
2022-11-29T18:24:18.651Z,4.38
2022-11-29T18:26:45.929Z,4.33
2022-11-29T18:29:13.276Z,5.10
2022-11-29T18:31:43.462Z,6.67
2022-11-29T18:34:12.975Z,8.48
2022-11-29T18:36:43.074Z,21.97
2022-11-29T18:39:16.669Z,13.23
2022-11-29T18:41:47.083Z,8.67
2022-11-29T18:44:16.434Z,9.40
2022-11-29T18:46:45.063Z,9.50
2022-11-29T18:49:16.127Z,10.18
2022-11-29T18:51:45.791Z,9.13
2022-11-29T18:54:14.870Z,9.23
2022-11-29T18:56:43.696Z,7.90
2022-11-29T18:59:14.643Z,7.00
2022-11-29T19:01:45.062Z,7.70
2022-11-29T19:04:15.247Z,7.50
2022-11-29T19:06:43.259Z,7.53
2022-11-29T19:09:21.281Z,8.15
2022-11-29T19:11:49.693Z,8.23
2022-11-29T19:14:16.882Z,8.02
2022-11-29T19:16:46.157Z,7.15
2022-11-29T19:19:13.571Z,6.33
2022-11-29T19:21:41.254Z,5.97
2022-11-29T19:24:15.531Z,6.20
2022-11-29T19:26:45.068Z,6.10
2022-11-29T19:29:13.732Z,5.35
2022-11-29T19:31:41.583Z,5.47
2022-11-29T19:34:08.766Z,5.10
2022-11-29T19:36:42.826Z,5.07
2022-11-29T19:39:16.237Z,4.85
2022-11-29T19:41:45.505Z,7.47
2022-11-29T19:44:12.817Z,4.65
2022-11-29T19:46:45.768Z,5.35
2022-11-29T19:49:13.240Z,6.10
2022-11-29T19:51:40.603Z,9.93
2022-11-29T19:54:09.149Z,4.93
2022-11-29T19:56:36.828Z,6.03
2022-11-29T19:59:05.375Z,3.92
2022-11-29T20:01:40.364Z,3.80
2022-11-29T20:04:10.333Z,3.88
2022-11-29T20:06:37.578Z,4.15
2022-11-29T20:09:05.089Z,4.45
2022-11-29T20:11:32.254Z,4.57
2022-11-29T20:14:01.838Z,5.00
2022-11-29T20:16:30.034Z,5.15
2022-11-29T20:18:57.991Z,4.90
2022-11-29T20:21:30.662Z,5.20
2022-11-29T20:24:03.444Z,4.85
2022-11-29T20:26:33.086Z,4.90
2022-11-29T20:29:02.008Z,4.90
2022-11-29T20:31:29.637Z,4.65
2022-11-29T20:33:59.693Z,4.90
2022-11-29T20:36:37.588Z,4.97
2022-11-29T20:39:19.551Z,5.40
2022-11-29T20:41:54.515Z,5.13
2022-11-29T20:44:37.663Z,5.07
2022-11-29T20:47:16.380Z,5.40
2022-11-29T20:49:43.764Z,5.17
2022-11-29T20:52:33.183Z,5.47
2022-11-29T20:55:00.717Z,5.87
2022-11-29T20:57:28.507Z,6.40
2022-11-29T20:59:55.657Z,6.75
2022-11-29T21:02:23.283Z,5.38
2022-11-29T21:04:50.732Z,5.38
2022-11-29T21:07:17.966Z,5.38
2022-11-29T21:09:45.661Z,5.60
2022-11-29T21:12:13.485Z,5.38
2022-11-29T21:14:40.928Z,6.20
2022-11-29T21:17:08.900Z,7.20
2022-11-29T21:19:36.655Z,6.28
2022-11-29T21:22:03.797Z,6.10
2022-11-29T21:25:08.559Z,5.70
2022-11-29T21:27:36.327Z,6.18
2022-11-29T21:30:07.294Z,6.32
2022-11-29T21:32:34.776Z,6.18
2022-11-29T21:35:01.902Z,6.03
2022-11-29T21:37:30.661Z,6.28
2022-11-29T21:39:58.049Z,6.80
2022-11-29T21:42:25.214Z,6.45
2022-11-29T21:44:52.408Z,6.77
2022-11-29T21:47:20.208Z,6.90
2022-11-29T21:49:48.893Z,7.28
2022-11-29T21:52:21.988Z,7.47
2022-11-29T21:54:50.322Z,7.03
2022-11-29T21:57:17.471Z,7.25
2022-11-29T21:59:44.689Z,7.43
2022-11-29T22:02:12.036Z,7.60
2022-11-29T22:04:39.248Z,7.22
2022-11-29T22:07:06.377Z,7.63
2022-11-29T22:09:33.489Z,7.50
2022-11-29T22:12:06.624Z,7.93
2022-11-29T22:14:47.038Z,7.57
2022-11-29T22:17:14.369Z,8.25
2022-11-29T22:19:42.446Z,8.70
2022-11-29T22:22:10.812Z,8.02
2022-11-29T22:24:38.050Z,8.80
2022-11-29T22:27:05.268Z,8.00
2022-11-29T22:29:32.523Z,8.00
2022-11-29T22:32:01.055Z,8.45
2022-11-29T22:34:28.409Z,9.20
2022-11-29T22:36:55.765Z,9.07
2022-11-29T22:39:23.933Z,9.90
2022-11-29T22:41:54.688Z,11.00
2022-11-29T22:44:23.390Z,11.82
2022-11-29T22:46:51.169Z,11.85
2022-11-29T22:49:18.442Z,13.27
2022-11-29T22:51:45.611Z,13.40
2022-11-29T22:54:15.472Z,14.38
2022-11-29T22:56:44.240Z,15.02
2022-11-29T22:59:11.660Z,17.48
2022-11-29T23:01:40.852Z,17.95
2022-11-29T23:04:10.209Z,17.17
2022-11-29T23:06:40.402Z,16.13
2022-11-29T23:09:15.925Z,16.77
2022-11-29T23:11:45.015Z,16.50
2022-11-29T23:14:12.670Z,16.52
2022-11-29T23:16:40.501Z,16.58
2022-11-29T23:19:08.056Z,16.98
2022-11-29T23:21:38.384Z,17.00
2022-11-29T23:24:06.409Z,16.67
2022-11-29T23:26:40.023Z,16.10
2022-11-29T23:29:10.245Z,15.02
2022-11-29T23:31:37.838Z,15.50
2022-11-29T23:34:05.449Z,16.73
2022-11-29T23:36:33.381Z,16.75
2022-11-29T23:39:00.986Z,15.77
2022-11-29T23:41:28.233Z,16.08
2022-11-29T23:43:55.485Z,16.30
2022-11-29T23:46:24.358Z,16.23
2022-11-29T23:48:52.298Z,16.60
2022-11-29T23:51:20.370Z,16.40
2022-11-29T23:53:54.105Z,16.67
2022-11-29T23:56:22.723Z,16.52
2022-11-29T23:58:50.277Z,15.90
